sensor_id;sensor_type;location;lat;lon;timestamp;pressure;altitude;pressure_sealevel;temperature
20736;BMP180;10528;52.124;5.196;2024-03-07T00:01:12;102509.00;;;12.00
20736;BMP180;10528;52.124;5.196;2024-03-07T00:03:39;102520.00;;;11.90
20736;BMP180;10528;52.124;5.196;2024-03-07T00:06:06;102513.00;;;11.90
20736;BMP180;10528;52.124;5.196;2024-03-07T00:08:33;102518.00;;;11.90
20736;BMP180;10528;52.124;5.196;2024-03-07T00:11:00;102521.00;;;11.90
20736;BMP180;10528;52.124;5.196;2024-03-07T00:13:27;102514.00;;;11.80
20736;BMP180;10528;52.124;5.196;2024-03-07T00:15:54;102520.00;;;11.80
20736;BMP180;10528;52.124;5.196;2024-03-07T00:18:21;102515.00;;;11.80
20736;BMP180;10528;52.124;5.196;2024-03-07T00:20:49;102516.00;;;11.80
20736;BMP180;10528;52.124;5.196;2024-03-07T00:23:16;102512.00;;;11.80
20736;BMP180;10528;52.124;5.196;2024-03-07T00:25:43;102520.00;;;11.80
20736;BMP180;10528;52.124;5.196;2024-03-07T00:28:10;102528.00;;;11.70
20736;BMP180;10528;52.124;5.196;2024-03-07T00:30:37;102516.00;;;11.70
20736;BMP180;10528;52.124;5.196;2024-03-07T00:33:04;102518.00;;;11.70
20736;BMP180;10528;52.124;5.196;2024-03-07T00:35:31;102516.00;;;11.70
20736;BMP180;10528;52.124;5.196;2024-03-07T00:37:58;102517.00;;;11.70
20736;BMP180;10528;52.124;5.196;2024-03-07T00:40:25;102521.00;;;11.70
20736;BMP180;10528;52.124;5.196;2024-03-07T00:42:51;102517.00;;;11.60
20736;BMP180;10528;52.124;5.196;2024-03-07T00:45:19;102521.00;;;11.60
20736;BMP180;10528;52.124;5.196;2024-03-07T00:47:46;102510.00;;;11.60
20736;BMP180;10528;52.124;5.196;2024-03-07T00:50:15;102518.00;;;11.60
20736;BMP180;10528;52.124;5.196;2024-03-07T00:52:42;102519.00;;;11.60
20736;BMP180;10528;52.124;5.196;2024-03-07T00:55:09;102520.00;;;11.50
20736;BMP180;10528;52.124;5.196;2024-03-07T00:57:36;102520.00;;;11.50
20736;BMP180;10528;52.124;5.196;2024-03-07T01:00:04;102520.00;;;11.50
20736;BMP180;10528;52.124;5.196;2024-03-07T01:02:32;102508.00;;;11.50
20736;BMP180;10528;52.124;5.196;2024-03-07T01:04:58;102508.00;;;11.50
20736;BMP180;10528;52.124;5.196;2024-03-07T01:07:25;102511.00;;;11.40
20736;BMP180;10528;52.124;5.196;2024-03-07T01:09:54;102515.00;;;11.40
20736;BMP180;10528;52.124;5.196;2024-03-07T01:12:21;102509.00;;;11.40
20736;BMP180;10528;52.124;5.196;2024-03-07T01:14:50;102512.00;;;11.40
20736;BMP180;10528;52.124;5.196;2024-03-07T01:17:18;102513.00;;;11.30
20736;BMP180;10528;52.124;5.196;2024-03-07T01:19:45;102511.00;;;11.30
20736;BMP180;10528;52.124;5.196;2024-03-07T01:22:11;102511.00;;;11.30
20736;BMP180;10528;52.124;5.196;2024-03-07T01:24:38;102502.00;;;11.30
20736;BMP180;10528;52.124;5.196;2024-03-07T01:27:06;102513.00;;;11.30
20736;BMP180;10528;52.124;5.196;2024-03-07T01:29:34;102505.00;;;11.30
20736;BMP180;10528;52.124;5.196;2024-03-07T01:32:01;102499.00;;;11.20
20736;BMP180;10528;52.124;5.196;2024-03-07T01:34:30;102503.00;;;11.20
20736;BMP180;10528;52.124;5.196;2024-03-07T01:36:56;102509.00;;;11.20
20736;BMP180;10528;52.124;5.196;2024-03-07T01:39:23;102494.00;;;11.20
20736;BMP180;10528;52.124;5.196;2024-03-07T01:41:50;102494.00;;;11.20
20736;BMP180;10528;52.124;5.196;2024-03-07T01:44:17;102497.00;;;11.10
20736;BMP180;10528;52.124;5.196;2024-03-07T01:46:45;102489.00;;;11.10
20736;BMP180;10528;52.124;5.196;2024-03-07T01:49:12;102492.00;;;11.10
20736;BMP180;10528;52.124;5.196;2024-03-07T01:51:39;102486.00;;;11.10
20736;BMP180;10528;52.124;5.196;2024-03-07T01:54:08;102493.00;;;11.00
20736;BMP180;10528;52.124;5.196;2024-03-07T01:56:36;102484.00;;;11.00
20736;BMP180;10528;52.124;5.196;2024-03-07T01:59:06;102485.00;;;11.00
20736;BMP180;10528;52.124;5.196;2024-03-07T02:01:34;102489.00;;;11.00
20736;BMP180;10528;52.124;5.196;2024-03-07T02:04:03;102485.00;;;11.00
20736;BMP180;10528;52.124;5.196;2024-03-07T02:06:32;102487.00;;;11.00
20736;BMP180;10528;52.124;5.196;2024-03-07T02:09:00;102484.00;;;11.00
20736;BMP180;10528;52.124;5.196;2024-03-07T02:11:28;102473.00;;;10.90
20736;BMP180;10528;52.124;5.196;2024-03-07T02:13:55;102477.00;;;10.90
20736;BMP180;10528;52.124;5.196;2024-03-07T02:16:22;102470.00;;;10.90
20736;BMP180;10528;52.124;5.196;2024-03-07T02:18:50;102472.00;;;10.90
20736;BMP180;10528;52.124;5.196;2024-03-07T02:21:17;102472.00;;;10.90
20736;BMP180;10528;52.124;5.196;2024-03-07T02:23:44;102474.00;;;10.90
20736;BMP180;10528;52.124;5.196;2024-03-07T02:26:11;102483.00;;;10.90
20736;BMP180;10528;52.124;5.196;2024-03-07T02:28:38;102472.00;;;10.90
20736;BMP180;10528;52.124;5.196;2024-03-07T02:31:05;102477.00;;;10.90
20736;BMP180;10528;52.124;5.196;2024-03-07T02:33:32;102481.00;;;10.90
20736;BMP180;10528;52.124;5.196;2024-03-07T02:35:59;102482.00;;;10.90
20736;BMP180;10528;52.124;5.196;2024-03-07T02:38:26;102476.00;;;10.90
20736;BMP180;10528;52.124;5.196;2024-03-07T02:40:53;102487.00;;;10.90
20736;BMP180;10528;52.124;5.196;2024-03-07T02:43:20;102471.00;;;11.00
20736;BMP180;10528;52.124;5.196;2024-03-07T02:45:48;102468.00;;;10.90
20736;BMP180;10528;52.124;5.196;2024-03-07T02:48:16;102470.00;;;11.00
20736;BMP180;10528;52.124;5.196;2024-03-07T02:50:45;102473.00;;;11.00
20736;BMP180;10528;52.124;5.196;2024-03-07T02:53:12;102464.00;;;11.00
20736;BMP180;10528;52.124;5.196;2024-03-07T02:55:39;102465.00;;;11.00
20736;BMP180;10528;52.124;5.196;2024-03-07T02:58:06;102465.00;;;11.00
20736;BMP180;10528;52.124;5.196;2024-03-07T03:00:33;102460.00;;;10.90
20736;BMP180;10528;52.124;5.196;2024-03-07T03:03:01;102453.00;;;10.90
20736;BMP180;10528;52.124;5.196;2024-03-07T03:05:28;102454.00;;;10.90
20736;BMP180;10528;52.124;5.196;2024-03-07T03:07:56;102455.00;;;10.90
20736;BMP180;10528;52.124;5.196;2024-03-07T03:10:25;102456.00;;;10.90
20736;BMP180;10528;52.124;5.196;2024-03-07T03:12:55;102451.00;;;10.90
20736;BMP180;10528;52.124;5.196;2024-03-07T03:15:24;102434.00;;;10.90
20736;BMP180;10528;52.124;5.196;2024-03-07T03:17:52;102444.00;;;10.90
20736;BMP180;10528;52.124;5.196;2024-03-07T03:20:19;102450.00;;;10.90
20736;BMP180;10528;52.124;5.196;2024-03-07T03:23:07;102432.00;;;10.90
20736;BMP180;10528;52.124;5.196;2024-03-07T03:25:47;102437.00;;;10.80
20736;BMP180;10528;52.124;5.196;2024-03-07T03:28:17;102427.00;;;10.80
20736;BMP180;10528;52.124;5.196;2024-03-07T03:30:48;102443.00;;;10.80
20736;BMP180;10528;52.124;5.196;2024-03-07T03:33:15;102428.00;;;10.80
20736;BMP180;10528;52.124;5.196;2024-03-07T03:35:43;102431.00;;;10.80
20736;BMP180;10528;52.124;5.196;2024-03-07T03:38:11;102438.00;;;10.80
20736;BMP180;10528;52.124;5.196;2024-03-07T03:40:38;102422.00;;;10.80
20736;BMP180;10528;52.124;5.196;2024-03-07T03:43:05;102432.00;;;10.80
20736;BMP180;10528;52.124;5.196;2024-03-07T03:45:32;102424.00;;;10.80
20736;BMP180;10528;52.124;5.196;2024-03-07T03:48:01;102422.00;;;10.70
20736;BMP180;10528;52.124;5.196;2024-03-07T03:50:28;102416.00;;;10.70
20736;BMP180;10528;52.124;5.196;2024-03-07T03:52:55;102416.00;;;10.70
20736;BMP180;10528;52.124;5.196;2024-03-07T03:55:24;102420.00;;;10.70
20736;BMP180;10528;52.124;5.196;2024-03-07T03:57:50;102429.00;;;10.70
20736;BMP180;10528;52.124;5.196;2024-03-07T04:00:18;102411.00;;;10.70
20736;BMP180;10528;52.124;5.196;2024-03-07T04:02:46;102408.00;;;10.70
20736;BMP180;10528;52.124;5.196;2024-03-07T04:05:18;102418.00;;;10.70
20736;BMP180;10528;52.124;5.196;2024-03-07T04:07:46;102411.00;;;10.70
20736;BMP180;10528;52.124;5.196;2024-03-07T04:10:16;102412.00;;;10.70
20736;BMP180;10528;52.124;5.196;2024-03-07T04:12:44;102411.00;;;10.60
20736;BMP180;10528;52.124;5.196;2024-03-07T04:15:14;102420.00;;;10.60
20736;BMP180;10528;52.124;5.196;2024-03-07T04:17:45;102414.00;;;10.60
20736;BMP180;10528;52.124;5.196;2024-03-07T04:20:13;102413.00;;;10.60
20736;BMP180;10528;52.124;5.196;2024-03-07T04:22:43;102415.00;;;10.50
20736;BMP180;10528;52.124;5.196;2024-03-07T04:25:10;102422.00;;;10.50
20736;BMP180;10528;52.124;5.196;2024-03-07T04:27:38;102416.00;;;10.50
20736;BMP180;10528;52.124;5.196;2024-03-07T04:30:08;102411.00;;;10.50
20736;BMP180;10528;52.124;5.196;2024-03-07T04:32:38;102421.00;;;10.40
20736;BMP180;10528;52.124;5.196;2024-03-07T04:35:06;102420.00;;;10.40
20736;BMP180;10528;52.124;5.196;2024-03-07T04:37:35;102405.00;;;10.40
20736;BMP180;10528;52.124;5.196;2024-03-07T04:40:08;102419.00;;;10.30
20736;BMP180;10528;52.124;5.196;2024-03-07T04:42:48;102418.00;;;10.30
20736;BMP180;10528;52.124;5.196;2024-03-07T04:45:18;102411.00;;;10.30
20736;BMP180;10528;52.124;5.196;2024-03-07T04:47:45;102414.00;;;10.30
20736;BMP180;10528;52.124;5.196;2024-03-07T04:50:17;102415.00;;;10.30
20736;BMP180;10528;52.124;5.196;2024-03-07T04:52:46;102413.00;;;10.30
20736;BMP180;10528;52.124;5.196;2024-03-07T04:55:15;102419.00;;;10.30
20736;BMP180;10528;52.124;5.196;2024-03-07T04:57:42;102413.00;;;10.30
20736;BMP180;10528;52.124;5.196;2024-03-07T05:00:14;102410.00;;;10.20
20736;BMP180;10528;52.124;5.196;2024-03-07T05:02:48;102419.00;;;10.20
20736;BMP180;10528;52.124;5.196;2024-03-07T05:05:19;102412.00;;;10.20
20736;BMP180;10528;52.124;5.196;2024-03-07T05:07:51;102416.00;;;10.20
20736;BMP180;10528;52.124;5.196;2024-03-07T05:10:19;102414.00;;;10.20
20736;BMP180;10528;52.124;5.196;2024-03-07T05:12:46;102405.00;;;10.20
20736;BMP180;10528;52.124;5.196;2024-03-07T05:15:13;102412.00;;;10.20
20736;BMP180;10528;52.124;5.196;2024-03-07T05:17:40;102411.00;;;10.20
20736;BMP180;10528;52.124;5.196;2024-03-07T05:20:10;102410.00;;;10.10
20736;BMP180;10528;52.124;5.196;2024-03-07T05:22:39;102411.00;;;10.10
20736;BMP180;10528;52.124;5.196;2024-03-07T05:25:17;102412.00;;;10.10
20736;BMP180;10528;52.124;5.196;2024-03-07T05:27:49;102410.00;;;10.10
20736;BMP180;10528;52.124;5.196;2024-03-07T05:30:19;102413.00;;;10.00
20736;BMP180;10528;52.124;5.196;2024-03-07T05:32:46;102408.00;;;10.00
20736;BMP180;10528;52.124;5.196;2024-03-07T05:35:15;102404.00;;;10.00
20736;BMP180;10528;52.124;5.196;2024-03-07T05:37:46;102419.00;;;10.00
20736;BMP180;10528;52.124;5.196;2024-03-07T05:40:14;102415.00;;;10.00
20736;BMP180;10528;52.124;5.196;2024-03-07T05:42:41;102415.00;;;10.00
20736;BMP180;10528;52.124;5.196;2024-03-07T05:45:08;102404.00;;;9.90
20736;BMP180;10528;52.124;5.196;2024-03-07T05:47:35;102411.00;;;9.90
20736;BMP180;10528;52.124;5.196;2024-03-07T05:50:03;102409.00;;;9.90
20736;BMP180;10528;52.124;5.196;2024-03-07T05:52:30;102412.00;;;9.90
20736;BMP180;10528;52.124;5.196;2024-03-07T05:54:57;102405.00;;;9.90
20736;BMP180;10528;52.124;5.196;2024-03-07T05:57:24;102404.00;;;9.90
20736;BMP180;10528;52.124;5.196;2024-03-07T05:59:51;102406.00;;;9.90
20736;BMP180;10528;52.124;5.196;2024-03-07T06:02:18;102405.00;;;9.80
20736;BMP180;10528;52.124;5.196;2024-03-07T06:04:47;102395.00;;;9.80
20736;BMP180;10528;52.124;5.196;2024-03-07T06:07:14;102405.00;;;9.80
20736;BMP180;10528;52.124;5.196;2024-03-07T06:09:41;102411.00;;;9.80
20736;BMP180;10528;52.124;5.196;2024-03-07T06:12:10;102415.00;;;9.80
20736;BMP180;10528;52.124;5.196;2024-03-07T06:14:49;102414.00;;;9.70
20736;BMP180;10528;52.124;5.196;2024-03-07T06:17:16;102418.00;;;9.70
20736;BMP180;10528;52.124;5.196;2024-03-07T06:19:46;102404.00;;;9.70
20736;BMP180;10528;52.124;5.196;2024-03-07T06:22:14;102415.00;;;9.70
20736;BMP180;10528;52.124;5.196;2024-03-07T06:24:41;102419.00;;;9.70
20736;BMP180;10528;52.124;5.196;2024-03-07T06:27:09;102418.00;;;9.70
20736;BMP180;10528;52.124;5.196;2024-03-07T06:29:43;102423.00;;;9.70
20736;BMP180;10528;52.124;5.196;2024-03-07T06:32:10;102425.00;;;9.70
20736;BMP180;10528;52.124;5.196;2024-03-07T06:34:37;102425.00;;;9.70
20736;BMP180;10528;52.124;5.196;2024-03-07T06:37:05;102411.00;;;9.70
20736;BMP180;10528;52.124;5.196;2024-03-07T06:39:32;102424.00;;;9.70
20736;BMP180;10528;52.124;5.196;2024-03-07T06:41:59;102420.00;;;9.70
20736;BMP180;10528;52.124;5.196;2024-03-07T06:44:27;102423.00;;;9.70
20736;BMP180;10528;52.124;5.196;2024-03-07T06:46:54;102419.00;;;9.70
20736;BMP180;10528;52.124;5.196;2024-03-07T06:49:21;102419.00;;;9.70
20736;BMP180;10528;52.124;5.196;2024-03-07T06:51:48;102421.00;;;9.70
20736;BMP180;10528;52.124;5.196;2024-03-07T06:54:15;102413.00;;;9.80
20736;BMP180;10528;52.124;5.196;2024-03-07T06:56:42;102414.00;;;9.80
20736;BMP180;10528;52.124;5.196;2024-03-07T06:59:10;102416.00;;;9.80
20736;BMP180;10528;52.124;5.196;2024-03-07T07:01:37;102421.00;;;9.80
20736;BMP180;10528;52.124;5.196;2024-03-07T07:04:09;102421.00;;;9.90
20736;BMP180;10528;52.124;5.196;2024-03-07T07:06:36;102418.00;;;9.90
20736;BMP180;10528;52.124;5.196;2024-03-07T07:09:03;102417.00;;;9.90
20736;BMP180;10528;52.124;5.196;2024-03-07T07:11:33;102411.00;;;9.90
20736;BMP180;10528;52.124;5.196;2024-03-07T07:14:02;102418.00;;;10.00
20736;BMP180;10528;52.124;5.196;2024-03-07T07:16:29;102413.00;;;10.10
20736;BMP180;10528;52.124;5.196;2024-03-07T07:18:57;102409.00;;;10.10
20736;BMP180;10528;52.124;5.196;2024-03-07T07:21:24;102405.00;;;10.20
20736;BMP180;10528;52.124;5.196;2024-03-07T07:23:51;102413.00;;;10.20
20736;BMP180;10528;52.124;5.196;2024-03-07T07:26:18;102409.00;;;10.30
20736;BMP180;10528;52.124;5.196;2024-03-07T07:28:45;102411.00;;;10.30
20736;BMP180;10528;52.124;5.196;2024-03-07T07:31:13;102409.00;;;10.30
20736;BMP180;10528;52.124;5.196;2024-03-07T07:33:40;102409.00;;;10.30
20736;BMP180;10528;52.124;5.196;2024-03-07T07:36:07;102412.00;;;10.30
20736;BMP180;10528;52.124;5.196;2024-03-07T07:38:35;102410.00;;;10.30
20736;BMP180;10528;52.124;5.196;2024-03-07T07:41:03;102406.00;;;10.30
20736;BMP180;10528;52.124;5.196;2024-03-07T07:43:30;102403.00;;;10.30
20736;BMP180;10528;52.124;5.196;2024-03-07T07:46:09;102406.00;;;10.30
20736;BMP180;10528;52.124;5.196;2024-03-07T07:48:35;102401.00;;;10.30
20736;BMP180;10528;52.124;5.196;2024-03-07T07:51:03;102397.00;;;10.40
20736;BMP180;10528;52.124;5.196;2024-03-07T07:53:31;102396.00;;;10.40
20736;BMP180;10528;52.124;5.196;2024-03-07T07:55:58;102401.00;;;10.40
20736;BMP180;10528;52.124;5.196;2024-03-07T07:58:25;102405.00;;;10.40
20736;BMP180;10528;52.124;5.196;2024-03-07T08:00:52;102400.00;;;10.40
20736;BMP180;10528;52.124;5.196;2024-03-07T08:03:19;102411.00;;;10.40
20736;BMP180;10528;52.124;5.196;2024-03-07T08:05:48;102406.00;;;10.40
20736;BMP180;10528;52.124;5.196;2024-03-07T08:08:15;102397.00;;;10.50
20736;BMP180;10528;52.124;5.196;2024-03-07T08:10:45;102400.00;;;10.50
20736;BMP180;10528;52.124;5.196;2024-03-07T08:13:13;102392.00;;;10.40
20736;BMP180;10528;52.124;5.196;2024-03-07T08:15:41;102392.00;;;10.50
20736;BMP180;10528;52.124;5.196;2024-03-07T08:18:08;102391.00;;;10.50
20736;BMP180;10528;52.124;5.196;2024-03-07T08:20:38;102391.00;;;10.60
20736;BMP180;10528;52.124;5.196;2024-03-07T08:23:06;102399.00;;;10.60
20736;BMP180;10528;52.124;5.196;2024-03-07T08:25:33;102403.00;;;10.70
20736;BMP180;10528;52.124;5.196;2024-03-07T08:28:00;102396.00;;;10.70
20736;BMP180;10528;52.124;5.196;2024-03-07T08:30:28;102397.00;;;10.70
20736;BMP180;10528;52.124;5.196;2024-03-07T08:32:56;102383.00;;;10.80
20736;BMP180;10528;52.124;5.196;2024-03-07T08:35:24;102382.00;;;10.80
20736;BMP180;10528;52.124;5.196;2024-03-07T08:37:53;102387.00;;;10.90
20736;BMP180;10528;52.124;5.196;2024-03-07T08:40:25;102387.00;;;10.90
20736;BMP180;10528;52.124;5.196;2024-03-07T08:42:56;102399.00;;;10.90
20736;BMP180;10528;52.124;5.196;2024-03-07T08:45:26;102405.00;;;11.00
20736;BMP180;10528;52.124;5.196;2024-03-07T08:47:55;102401.00;;;11.00
20736;BMP180;10528;52.124;5.196;2024-03-07T08:50:24;102401.00;;;11.00
20736;BMP180;10528;52.124;5.196;2024-03-07T08:52:53;102396.00;;;11.00
20736;BMP180;10528;52.124;5.196;2024-03-07T08:55:24;102401.00;;;11.10
20736;BMP180;10528;52.124;5.196;2024-03-07T08:57:53;102396.00;;;11.10
20736;BMP180;10528;52.124;5.196;2024-03-07T09:00:20;102392.00;;;11.10
20736;BMP180;10528;52.124;5.196;2024-03-07T09:02:58;102393.00;;;11.20
20736;BMP180;10528;52.124;5.196;2024-03-07T09:05:30;102398.00;;;11.20
20736;BMP180;10528;52.124;5.196;2024-03-07T09:08:00;102388.00;;;11.20
20736;BMP180;10528;52.124;5.196;2024-03-07T09:10:27;102392.00;;;11.30
20736;BMP180;10528;52.124;5.196;2024-03-07T09:12:57;102396.00;;;11.30
20736;BMP180;10528;52.124;5.196;2024-03-07T09:15:25;102396.00;;;11.40
20736;BMP180;10528;52.124;5.196;2024-03-07T09:17:52;102377.00;;;11.40
20736;BMP180;10528;52.124;5.196;2024-03-07T09:20:20;102384.00;;;11.40
20736;BMP180;10528;52.124;5.196;2024-03-07T09:22:48;102377.00;;;11.40
20736;BMP180;10528;52.124;5.196;2024-03-07T09:25:17;102365.00;;;11.40
20736;BMP180;10528;52.124;5.196;2024-03-07T09:27:45;102377.00;;;11.40
20736;BMP180;10528;52.124;5.196;2024-03-07T09:30:12;102364.00;;;11.50
20736;BMP180;10528;52.124;5.196;2024-03-07T09:32:42;102359.00;;;11.60
20736;BMP180;10528;52.124;5.196;2024-03-07T09:35:11;102373.00;;;11.70
20736;BMP180;10528;52.124;5.196;2024-03-07T09:37:43;102369.00;;;11.80
20736;BMP180;10528;52.124;5.196;2024-03-07T09:40:11;102358.00;;;11.90
20736;BMP180;10528;52.124;5.196;2024-03-07T09:42:46;102363.00;;;11.90
20736;BMP180;10528;52.124;5.196;2024-03-07T09:45:20;102350.00;;;11.90
20736;BMP180;10528;52.124;5.196;2024-03-07T09:47:50;102356.00;;;11.90
20736;BMP180;10528;52.124;5.196;2024-03-07T09:50:21;102356.00;;;11.90
20736;BMP180;10528;52.124;5.196;2024-03-07T09:52:52;102352.00;;;12.10
20736;BMP180;10528;52.124;5.196;2024-03-07T09:55:21;102355.00;;;12.20
20736;BMP180;10528;52.124;5.196;2024-03-07T09:57:51;102355.00;;;12.30
20736;BMP180;10528;52.124;5.196;2024-03-07T10:00:20;102348.00;;;12.40
20736;BMP180;10528;52.124;5.196;2024-03-07T10:03:02;102351.00;;;12.40
20736;BMP180;10528;52.124;5.196;2024-03-07T10:05:31;102335.00;;;12.50
20736;BMP180;10528;52.124;5.196;2024-03-07T10:08:00;102347.00;;;12.60
20736;BMP180;10528;52.124;5.196;2024-03-07T10:10:28;102354.00;;;12.60
20736;BMP180;10528;52.124;5.196;2024-03-07T10:12:57;102343.00;;;12.70
20736;BMP180;10528;52.124;5.196;2024-03-07T10:15:30;102342.00;;;12.70
20736;BMP180;10528;52.124;5.196;2024-03-07T10:17:58;102342.00;;;12.80
20736;BMP180;10528;52.124;5.196;2024-03-07T10:20:26;102347.00;;;12.70
20736;BMP180;10528;52.124;5.196;2024-03-07T10:22:53;102353.00;;;12.80
20736;BMP180;10528;52.124;5.196;2024-03-07T10:25:22;102329.00;;;12.90
20736;BMP180;10528;52.124;5.196;2024-03-07T10:27:55;102330.00;;;13.00
20736;BMP180;10528;52.124;5.196;2024-03-07T10:30:22;102331.00;;;13.10
20736;BMP180;10528;52.124;5.196;2024-03-07T10:32:59;102328.00;;;13.20
20736;BMP180;10528;52.124;5.196;2024-03-07T10:35:29;102325.00;;;13.30
20736;BMP180;10528;52.124;5.196;2024-03-07T10:37:58;102320.00;;;13.40
20736;BMP180;10528;52.124;5.196;2024-03-07T10:40:34;102312.00;;;13.40
20736;BMP180;10528;52.124;5.196;2024-03-07T10:43:10;102312.00;;;13.50
20736;BMP180;10528;52.124;5.196;2024-03-07T10:45:44;102311.00;;;13.60
20736;BMP180;10528;52.124;5.196;2024-03-07T10:48:16;102316.00;;;13.60
20736;BMP180;10528;52.124;5.196;2024-03-07T10:50:52;102314.00;;;13.50
20736;BMP180;10528;52.124;5.196;2024-03-07T10:53:32;102311.00;;;13.60
20736;BMP180;10528;52.124;5.196;2024-03-07T10:56:20;102306.00;;;13.60
20736;BMP180;10528;52.124;5.196;2024-03-07T11:01:32;102305.00;;;13.80
20736;BMP180;10528;52.124;5.196;2024-03-07T11:04:02;102298.00;;;13.90
20736;BMP180;10528;52.124;5.196;2024-03-07T11:06:33;102298.00;;;14.00
20736;BMP180;10528;52.124;5.196;2024-03-07T11:09:03;102304.00;;;14.00
20736;BMP180;10528;52.124;5.196;2024-03-07T11:11:40;102289.00;;;14.00
20736;BMP180;10528;52.124;5.196;2024-03-07T11:14:11;102302.00;;;14.10
20736;BMP180;10528;52.124;5.196;2024-03-07T11:16:40;102303.00;;;14.10
20736;BMP180;10528;52.124;5.196;2024-03-07T11:19:25;102288.00;;;14.20
20736;BMP180;10528;52.124;5.196;2024-03-07T11:21:55;102291.00;;;14.30
20736;BMP180;10528;52.124;5.196;2024-03-07T11:24:28;102292.00;;;14.40
20736;BMP180;10528;52.124;5.196;2024-03-07T11:26:57;102275.00;;;14.40
20736;BMP180;10528;52.124;5.196;2024-03-07T11:29:48;102283.00;;;14.50
20736;BMP180;10528;52.124;5.196;2024-03-07T11:32:20;102281.00;;;14.50
20736;BMP180;10528;52.124;5.196;2024-03-07T11:34:54;102272.00;;;14.50
20736;BMP180;10528;52.124;5.196;2024-03-07T11:37:38;102273.00;;;14.40
20736;BMP180;10528;52.124;5.196;2024-03-07T11:42:53;102276.00;;;14.50
20736;BMP180;10528;52.124;5.196;2024-03-07T11:45:21;102276.00;;;14.60
20736;BMP180;10528;52.124;5.196;2024-03-07T11:48:00;102272.00;;;14.50
20736;BMP180;10528;52.124;5.196;2024-03-07T11:50:34;102267.00;;;14.50
20736;BMP180;10528;52.124;5.196;2024-03-07T11:53:06;102260.00;;;14.60
20736;BMP180;10528;52.124;5.196;2024-03-07T11:55:38;102254.00;;;14.70
20736;BMP180;10528;52.124;5.196;2024-03-07T11:58:18;102260.00;;;14.80
20736;BMP180;10528;52.124;5.196;2024-03-07T12:00:49;102246.00;;;14.70
20736;BMP180;10528;52.124;5.196;2024-03-07T12:03:20;102242.00;;;14.70
20736;BMP180;10528;52.124;5.196;2024-03-07T12:05:49;102246.00;;;14.70
20736;BMP180;10528;52.124;5.196;2024-03-07T12:08:18;102241.00;;;14.70
20736;BMP180;10528;52.124;5.196;2024-03-07T12:10:49;102243.00;;;14.70
20736;BMP180;10528;52.124;5.196;2024-03-07T12:13:20;102238.00;;;14.50
20736;BMP180;10528;52.124;5.196;2024-03-07T12:15:48;102237.00;;;14.50
20736;BMP180;10528;52.124;5.196;2024-03-07T12:18:20;102224.00;;;14.50
20736;BMP180;10528;52.124;5.196;2024-03-07T12:20:48;102214.00;;;14.50
20736;BMP180;10528;52.124;5.196;2024-03-07T12:23:25;102210.00;;;14.60
20736;BMP180;10528;52.124;5.196;2024-03-07T12:26:01;102196.00;;;14.60
20736;BMP180;10528;52.124;5.196;2024-03-07T12:28:29;102185.00;;;14.50
20736;BMP180;10528;52.124;5.196;2024-03-07T12:31:00;102207.00;;;14.50
20736;BMP180;10528;52.124;5.196;2024-03-07T12:33:30;102190.00;;;14.60
20736;BMP180;10528;52.124;5.196;2024-03-07T12:36:03;102180.00;;;14.60
20736;BMP180;10528;52.124;5.196;2024-03-07T12:38:36;102182.00;;;14.70
20736;BMP180;10528;52.124;5.196;2024-03-07T12:41:08;102170.00;;;14.80
20736;BMP180;10528;52.124;5.196;2024-03-07T12:43:41;102183.00;;;14.80
20736;BMP180;10528;52.124;5.196;2024-03-07T12:46:16;102165.00;;;14.80
20736;BMP180;10528;52.124;5.196;2024-03-07T12:48:44;102166.00;;;14.90
20736;BMP180;10528;52.124;5.196;2024-03-07T12:51:12;102162.00;;;14.90
20736;BMP180;10528;52.124;5.196;2024-03-07T12:53:45;102167.00;;;15.00
20736;BMP180;10528;52.124;5.196;2024-03-07T12:56:13;102174.00;;;15.10
20736;BMP180;10528;52.124;5.196;2024-03-07T12:58:45;102174.00;;;15.10
20736;BMP180;10528;52.124;5.196;2024-03-07T13:01:14;102191.00;;;15.10
20736;BMP180;10528;52.124;5.196;2024-03-07T13:03:41;102171.00;;;14.90
20736;BMP180;10528;52.124;5.196;2024-03-07T13:06:11;102164.00;;;14.80
20736;BMP180;10528;52.124;5.196;2024-03-07T13:08:38;102157.00;;;14.80
20736;BMP180;10528;52.124;5.196;2024-03-07T13:11:07;102152.00;;;14.80
20736;BMP180;10528;52.124;5.196;2024-03-07T13:13:36;102144.00;;;14.90
20736;BMP180;10528;52.124;5.196;2024-03-07T13:16:03;102158.00;;;14.90
20736;BMP180;10528;52.124;5.196;2024-03-07T13:18:31;102143.00;;;15.00
20736;BMP180;10528;52.124;5.196;2024-03-07T13:21:01;102144.00;;;15.10
20736;BMP180;10528;52.124;5.196;2024-03-07T13:23:34;102141.00;;;15.10
20736;BMP180;10528;52.124;5.196;2024-03-07T13:26:02;102141.00;;;15.20
20736;BMP180;10528;52.124;5.196;2024-03-07T13:28:35;102133.00;;;15.20
20736;BMP180;10528;52.124;5.196;2024-03-07T13:31:02;102135.00;;;15.30
20736;BMP180;10528;52.124;5.196;2024-03-07T13:33:30;102139.00;;;15.20
20736;BMP180;10528;52.124;5.196;2024-03-07T13:35:57;102133.00;;;15.10
20736;BMP180;10528;52.124;5.196;2024-03-07T13:38:24;102122.00;;;15.20
20736;BMP180;10528;52.124;5.196;2024-03-07T13:40:53;102121.00;;;15.10
20736;BMP180;10528;52.124;5.196;2024-03-07T13:43:20;102120.00;;;15.00
20736;BMP180;10528;52.124;5.196;2024-03-07T13:45:46;102120.00;;;15.10
20736;BMP180;10528;52.124;5.196;2024-03-07T13:48:15;102117.00;;;15.10
20736;BMP180;10528;52.124;5.196;2024-03-07T13:50:45;102115.00;;;15.10
20736;BMP180;10528;52.124;5.196;2024-03-07T13:53:26;102109.00;;;15.00
20736;BMP180;10528;52.124;5.196;2024-03-07T14:11:07;102092.00;;;14.80
20736;BMP180;10528;52.124;5.196;2024-03-07T14:13:54;102090.00;;;14.80
20736;BMP180;10528;52.124;5.196;2024-03-07T14:31:12;102086.00;;;14.70
20736;BMP180;10528;52.124;5.196;2024-03-07T14:36:46;102062.00;;;14.80
20736;BMP180;10528;52.124;5.196;2024-03-07T14:39:18;102078.00;;;14.80
20736;BMP180;10528;52.124;5.196;2024-03-07T14:41:57;102080.00;;;14.90
20736;BMP180;10528;52.124;5.196;2024-03-07T14:44:25;102088.00;;;14.90
20736;BMP180;10528;52.124;5.196;2024-03-07T14:47:02;102068.00;;;14.80